createdAt,value
2018-04-07T00:01:16.025Z,11.36
2018-04-07T00:03:44.417Z,11.34
2018-04-07T00:06:12.827Z,11.27
2018-04-07T00:08:41.996Z,11.29
2018-04-07T00:11:10.403Z,11.35
2018-04-07T00:13:38.801Z,11.40
2018-04-07T00:16:07.955Z,11.32
2018-04-07T00:18:36.400Z,11.27
2018-04-07T00:21:04.868Z,11.28
2018-04-07T00:23:34.040Z,11.12
2018-04-07T00:26:02.468Z,11.26
2018-04-07T00:28:30.919Z,11.20
2018-04-07T00:31:00.115Z,11.14
2018-04-07T00:33:29.274Z,11.04
2018-04-07T00:35:57.713Z,11.07
2018-04-07T00:38:26.940Z,11.00
2018-04-07T00:40:55.380Z,10.86
2018-04-07T00:43:23.825Z,10.87
2018-04-07T00:45:52.203Z,10.98
2018-04-07T00:48:20.636Z,11.01
2018-04-07T00:50:49.808Z,10.88
2018-04-07T00:53:18.238Z,10.98
2018-04-07T00:55:46.646Z,10.95
2018-04-07T00:58:15.038Z,10.89
2018-04-07T01:00:43.505Z,10.80
2018-04-07T01:03:11.931Z,10.95
2018-04-07T01:05:41.217Z,10.92
2018-04-07T01:08:09.626Z,10.96
2018-04-07T01:10:38.015Z,10.90
2018-04-07T01:13:06.411Z,10.96
2018-04-07T01:15:34.827Z,10.86
2018-04-07T01:18:03.223Z,10.89
2018-04-07T01:20:31.633Z,10.88
2018-04-07T01:23:00.813Z,10.90
2018-04-07T01:25:29.209Z,10.93
2018-04-07T01:27:58.371Z,10.88
2018-04-07T01:30:26.772Z,10.94
2018-04-07T01:32:55.191Z,10.90
2018-04-07T01:35:23.576Z,10.78
2018-04-07T01:37:51.997Z,10.77
2018-04-07T01:40:20.407Z,10.80
2018-04-07T01:42:50.302Z,10.78
2018-04-07T01:45:18.703Z,10.57
2018-04-07T01:47:47.168Z,10.40
2018-04-07T01:50:15.574Z,10.51
2018-04-07T01:52:44.942Z,10.55
2018-04-07T01:55:13.519Z,10.44
2018-04-07T01:57:41.951Z,10.42
2018-04-07T02:00:11.127Z,10.49
2018-04-07T02:02:39.619Z,10.47
2018-04-07T02:05:08.795Z,10.47
2018-04-07T02:07:37.191Z,10.48
2018-04-07T02:10:05.575Z,10.48
2018-04-07T02:12:34.088Z,10.43
2018-04-07T02:15:02.464Z,10.43
2018-04-07T02:17:30.854Z,10.34
2018-04-07T02:19:59.243Z,10.30
2018-04-07T02:22:27.643Z,10.31
2018-04-07T02:24:56.051Z,10.32
2018-04-07T02:27:24.452Z,10.22
2018-04-07T02:29:53.628Z,10.33
2018-04-07T02:32:22.066Z,10.25
2018-04-07T02:34:50.461Z,10.19
2018-04-07T02:37:18.886Z,10.13
2018-04-07T02:39:47.288Z,10.29
2018-04-07T02:42:16.436Z,10.22
2018-04-07T02:44:44.857Z,10.07
2018-04-07T02:47:13.252Z,10.11
2018-04-07T02:49:42.426Z,10.07
2018-04-07T02:52:10.802Z,10.07
2018-04-07T02:54:39.986Z,9.98
2018-04-07T02:57:08.395Z,9.95
2018-04-07T02:59:36.795Z,9.93
2018-04-07T03:02:05.212Z,9.98
2018-04-07T03:04:33.614Z,9.86
2018-04-07T03:07:02.038Z,9.74
2018-04-07T03:09:31.967Z,9.76
2018-04-07T03:12:00.378Z,9.66
2018-04-07T03:14:28.754Z,9.67
2018-04-07T03:16:57.271Z,9.58
2018-04-07T03:19:25.730Z,9.69
2018-04-07T03:21:54.118Z,9.67
2018-04-07T03:24:22.525Z,9.69
2018-04-07T03:26:50.940Z,9.70
2018-04-07T03:29:19.461Z,9.71
2018-04-07T03:31:47.860Z,9.74
2018-04-07T03:34:16.361Z,9.71
2018-04-07T03:36:44.743Z,9.59
2018-04-07T03:39:13.130Z,9.48
2018-04-07T03:41:42.277Z,9.48
2018-04-07T03:44:10.670Z,9.52
2018-04-07T03:46:39.231Z,9.39
2018-04-07T03:49:07.624Z,9.47
2018-04-07T03:51:35.999Z,9.41
2018-04-07T03:54:04.385Z,9.35
2018-04-07T03:56:32.784Z,9.37
2018-04-07T03:59:01.192Z,9.32
2018-04-07T04:01:30.359Z,9.19
2018-04-07T04:03:58.773Z,9.25
2018-04-07T04:06:27.409Z,9.26
2018-04-07T04:08:55.852Z,9.22
2018-04-07T04:11:25.224Z,9.17
2018-04-07T04:13:53.598Z,9.08
2018-04-07T04:16:22.099Z,9.09
2018-04-07T04:18:50.499Z,9.07
2018-04-07T04:21:18.874Z,9.11
2018-04-07T04:23:47.259Z,9.16
2018-04-07T04:26:15.643Z,9.16
2018-04-07T04:28:44.019Z,9.12
2018-04-07T04:31:12.512Z,9.07
2018-04-07T04:33:41.656Z,9.08
2018-04-07T04:36:10.037Z,9.08
2018-04-07T04:38:38.428Z,9.13
2018-04-07T04:41:06.808Z,8.96
2018-04-07T04:43:35.201Z,8.97
2018-04-07T04:46:03.635Z,8.98
2018-04-07T04:48:32.018Z,8.92
2018-04-07T04:51:00.441Z,8.94
2018-04-07T04:53:28.831Z,8.99
2018-04-07T04:55:57.231Z,8.97
2018-04-07T04:58:26.395Z,8.98
2018-04-07T05:00:54.758Z,8.94
2018-04-07T05:03:23.140Z,8.90
2018-04-07T05:05:51.535Z,8.86
2018-04-07T05:08:19.916Z,8.92
2018-04-07T05:10:48.301Z,8.86
2018-04-07T05:13:16.764Z,8.99
2018-04-07T05:15:45.168Z,8.93
2018-04-07T05:18:13.557Z,8.94
2018-04-07T05:20:41.950Z,8.97
2018-04-07T05:23:10.340Z,9.04
2018-04-07T05:25:38.740Z,9.10
2018-04-07T05:28:07.930Z,9.10
2018-04-07T05:30:37.151Z,9.03
2018-04-07T05:33:05.668Z,9.15
2018-04-07T05:35:34.082Z,9.17
2018-04-07T05:38:02.462Z,9.16
2018-04-07T05:40:31.008Z,9.19
2018-04-07T05:42:59.384Z,9.25
2018-04-07T05:45:27.807Z,9.32
2018-04-07T05:47:56.200Z,9.35
2018-04-07T05:50:25.519Z,9.97
2018-04-07T05:52:53.912Z,10.39
2018-04-07T05:55:22.537Z,10.90
2018-04-07T05:57:50.999Z,11.02
2018-04-07T06:00:19.652Z,11.34
2018-04-07T06:02:48.847Z,11.28
2018-04-07T06:05:18.896Z,11.28
2018-04-07T06:07:47.331Z,11.55
2018-04-07T06:10:16.024Z,11.43
2018-04-07T06:12:45.534Z,12.12
2018-04-07T06:15:13.963Z,12.37
2018-04-07T06:17:42.337Z,12.60
2018-04-07T06:20:10.741Z,13.08
2018-04-07T06:22:39.115Z,13.15
2018-04-07T06:25:07.532Z,13.22
2018-04-07T06:27:36.124Z,13.85
2018-04-07T06:30:05.333Z,14.24
2018-04-07T06:32:34.791Z,14.57
2018-04-07T06:35:04.023Z,14.33
2018-04-07T06:37:33.895Z,14.08
2018-04-07T06:40:02.291Z,14.27
2018-04-07T06:42:30.707Z,14.83
2018-04-07T06:45:02.847Z,14.88
2018-04-07T06:47:33.282Z,15.18
2018-04-07T06:50:01.935Z,15.68
2018-04-07T06:52:30.311Z,15.77
2018-04-07T06:54:58.747Z,15.48
2018-04-07T06:57:27.292Z,15.99
2018-04-07T06:59:55.714Z,15.79
2018-04-07T07:02:24.099Z,15.94
2018-04-07T07:04:52.522Z,16.09
2018-04-07T07:07:20.902Z,15.46
2018-04-07T07:09:49.947Z,15.66
2018-04-07T07:12:18.397Z,15.87
2018-04-07T07:14:46.806Z,15.78
2018-04-07T07:17:16.000Z,16.08
2018-04-07T07:19:44.408Z,15.80
2018-04-07T07:22:13.672Z,16.38
2018-04-07T07:24:42.878Z,16.14
2018-04-07T07:27:11.273Z,16.18
2018-04-07T07:29:39.676Z,16.29
2018-04-07T07:32:08.849Z,17.18
2018-04-07T07:34:37.236Z,16.87
2018-04-07T07:37:05.654Z,17.09
2018-04-07T07:39:34.245Z,17.41
2018-04-07T07:42:02.849Z,17.36
2018-04-07T07:44:31.217Z,18.68
2018-04-07T07:46:59.619Z,17.95
2018-04-07T07:49:28.008Z,18.46
2018-04-07T07:51:56.400Z,18.39
2018-04-07T07:54:24.774Z,18.81
2018-04-07T07:56:53.161Z,18.46
2018-04-07T07:59:21.562Z,18.80
2018-04-07T08:01:50.724Z,18.88
2018-04-07T08:04:19.127Z,18.69
2018-04-07T08:06:47.506Z,19.27
2018-04-07T08:09:15.903Z,19.10
2018-04-07T08:11:45.079Z,20.08
2018-04-07T08:14:13.471Z,20.40
2018-04-07T08:16:42.635Z,20.35
2018-04-07T08:19:11.021Z,19.63
2018-04-07T08:21:39.410Z,20.58
2018-04-07T08:24:07.796Z,20.52
2018-04-07T08:26:36.242Z,20.61
2018-04-07T08:29:04.654Z,21.68
2018-04-07T08:31:33.065Z,21.07
2018-04-07T08:34:02.216Z,21.11
2018-04-07T08:36:30.624Z,21.13
2018-04-07T08:38:59.003Z,20.29
2018-04-07T08:41:27.403Z,20.45
2018-04-07T08:43:55.907Z,21.50
2018-04-07T08:46:24.276Z,20.89
2018-04-07T08:48:52.738Z,22.09
2018-04-07T08:51:21.122Z,20.65
2018-04-07T08:53:49.544Z,21.10
2018-04-07T08:56:18.676Z,21.13
2018-04-07T08:58:47.127Z,21.22
2018-04-07T09:01:15.611Z,21.58
2018-04-07T09:03:44.865Z,21.21
2018-04-07T09:06:13.266Z,22.05
2018-04-07T09:08:41.696Z,21.70
2018-04-07T09:11:10.123Z,22.53
2018-04-07T09:13:38.500Z,22.08
2018-04-07T09:16:06.908Z,23.19
2018-04-07T09:18:36.214Z,21.99
2018-04-07T09:21:05.388Z,22.52
2018-04-07T09:23:33.800Z,24.02
2018-04-07T09:26:02.991Z,23.96
2018-04-07T09:28:32.273Z,22.97
2018-04-07T09:31:06.050Z,23.39
2018-04-07T09:33:34.526Z,23.19
2018-04-07T09:36:02.947Z,23.04
2018-04-07T09:38:31.393Z,23.24
2018-04-07T09:40:59.773Z,22.94
2018-04-07T09:43:28.256Z,23.32
2018-04-07T09:45:56.747Z,23.52
2018-04-07T09:48:25.157Z,24.24
2018-04-07T09:50:53.707Z,23.54
2018-04-07T09:53:22.909Z,24.05
2018-04-07T09:55:51.359Z,23.02
2018-04-07T09:58:20.581Z,23.46
2018-04-07T10:00:49.015Z,23.69
2018-04-07T10:03:22.244Z,23.81
2018-04-07T10:05:51.885Z,23.68
2018-04-07T10:08:20.330Z,24.66
2018-04-07T10:10:49.659Z,25.00
2018-04-07T10:13:18.045Z,23.85
2018-04-07T10:15:46.457Z,24.16
2018-04-07T10:18:14.889Z,24.24
2018-04-07T10:20:44.055Z,24.06
2018-04-07T10:23:12.450Z,24.44
2018-04-07T10:25:40.846Z,24.65
2018-04-07T10:28:10.102Z,23.96
2018-04-07T10:30:39.354Z,24.18
2018-04-07T10:33:08.495Z,24.19
2018-04-07T10:35:37.086Z,24.42
2018-04-07T10:38:05.497Z,24.55
2018-04-07T10:40:33.893Z,23.34
2018-04-07T10:43:03.059Z,23.71
2018-04-07T10:45:31.496Z,24.12
2018-04-07T10:47:59.899Z,24.59
2018-04-07T10:50:28.420Z,24.93
2018-04-07T10:52:57.611Z,24.36
2018-04-07T10:55:26.028Z,24.28
2018-04-07T10:57:55.196Z,24.30
2018-04-07T11:00:23.586Z,24.57
2018-04-07T11:02:52.025Z,24.87
2018-04-07T11:05:20.448Z,25.12
2018-04-07T11:07:48.870Z,24.80
2018-04-07T11:10:18.039Z,25.65
2018-04-07T11:12:46.499Z,25.76
2018-04-07T11:15:14.869Z,25.55
2018-04-07T11:17:43.294Z,24.41
2018-04-07T11:20:11.669Z,24.23
2018-04-07T11:22:40.722Z,24.69
2018-04-07T11:25:09.868Z,25.53
2018-04-07T11:27:39.042Z,25.13
2018-04-07T11:30:07.438Z,24.85
2018-04-07T11:32:35.873Z,25.36
2018-04-07T11:35:04.263Z,24.76
2018-04-07T11:37:32.655Z,24.54
2018-04-07T11:40:01.130Z,24.64
2018-04-07T11:42:29.594Z,24.61
2018-04-07T11:44:58.010Z,24.45
2018-04-07T11:47:26.406Z,24.43
2018-04-07T11:49:54.847Z,25.32
2018-04-07T11:52:23.302Z,25.51
2018-04-07T11:54:51.679Z,25.56
2018-04-07T11:57:20.861Z,25.15
2018-04-07T11:59:49.259Z,24.87
2018-04-07T12:02:17.742Z,24.45
2018-04-07T12:04:46.099Z,24.85
2018-04-07T12:07:14.474Z,24.48
2018-04-07T12:09:42.902Z,24.83
2018-04-07T12:12:12.064Z,25.18
2018-04-07T12:14:40.465Z,25.49
2018-04-07T12:17:08.856Z,25.65
2018-04-07T12:19:37.262Z,25.86
2018-04-07T12:22:05.666Z,25.99
2018-04-07T12:24:34.051Z,26.38
2018-04-07T12:27:02.496Z,25.82
2018-04-07T12:29:31.726Z,26.04
2018-04-07T12:32:00.113Z,26.05
2018-04-07T12:34:28.706Z,26.13
2018-04-07T12:36:57.111Z,25.81
2018-04-07T12:39:25.580Z,26.23
2018-04-07T12:41:54.112Z,26.48
2018-04-07T12:44:23.360Z,25.93
2018-04-07T12:46:52.052Z,26.08
2018-04-07T12:49:20.447Z,26.36
2018-04-07T12:51:48.827Z,26.02
2018-04-07T12:54:17.233Z,26.57
2018-04-07T12:56:46.011Z,25.59
2018-04-07T12:59:14.464Z,26.57
2018-04-07T13:01:42.852Z,26.72
2018-04-07T13:04:11.254Z,26.60
2018-04-07T13:06:39.643Z,26.48
2018-04-07T13:09:08.103Z,26.15
2018-04-07T13:11:36.599Z,26.55
2018-04-07T13:14:05.025Z,26.65
2018-04-07T13:16:34.180Z,26.96
2018-04-07T13:19:02.632Z,26.44
2018-04-07T13:21:31.074Z,26.73
2018-04-07T13:23:59.514Z,26.85
2018-04-07T13:26:27.923Z,26.90
2018-04-07T13:28:56.340Z,27.08
2018-04-07T13:31:24.801Z,26.77
2018-04-07T13:33:54.155Z,27.10
2018-04-07T13:36:22.680Z,27.20
2018-04-07T13:38:51.070Z,27.51
2018-04-07T13:41:19.486Z,27.04
2018-04-07T13:43:48.759Z,27.26
2018-04-07T13:46:17.146Z,27.29
2018-04-07T13:48:45.562Z,27.50
2018-04-07T13:51:13.978Z,28.04
2018-04-07T13:53:42.372Z,27.23
2018-04-07T13:56:10.788Z,27.42
2018-04-07T13:58:39.215Z,27.31
2018-04-07T14:01:07.675Z,26.85
2018-04-07T14:03:36.075Z,27.28
2018-04-07T14:06:05.241Z,27.76
2018-04-07T14:08:33.672Z,27.52
2018-04-07T14:11:02.064Z,28.05
2018-04-07T14:13:30.492Z,27.02
2018-04-07T14:15:58.917Z,26.82
2018-04-07T14:18:27.381Z,26.93
2018-04-07T14:20:55.811Z,27.23
2018-04-07T14:23:24.971Z,27.42
2018-04-07T14:25:53.371Z,26.75
2018-04-07T14:28:21.774Z,27.27
2018-04-07T14:30:50.188Z,27.42
2018-04-07T14:33:19.373Z,27.90
2018-04-07T14:35:47.775Z,27.85
2018-04-07T14:38:16.204Z,27.91
2018-04-07T14:40:44.635Z,28.20
2018-04-07T14:43:13.109Z,27.90
2018-04-07T14:45:42.271Z,27.71
2018-04-07T14:48:10.694Z,27.83
2018-04-07T14:50:39.850Z,28.43
2018-04-07T14:53:08.279Z,27.53
2018-04-07T14:55:37.443Z,27.04
2018-04-07T14:58:05.827Z,26.88
2018-04-07T15:00:34.330Z,27.52
2018-04-07T15:03:03.470Z,27.49
2018-04-07T15:05:31.858Z,27.72
2018-04-07T15:08:00.248Z,27.85
2018-04-07T15:10:28.644Z,27.96
2018-04-07T15:12:57.070Z,27.72
2018-04-07T15:15:26.268Z,27.77
2018-04-07T15:17:55.448Z,27.70
2018-04-07T15:20:23.839Z,28.28
2018-04-07T15:22:53.011Z,28.18
2018-04-07T15:25:21.464Z,27.89
2018-04-07T15:27:49.878Z,28.00
2018-04-07T15:30:19.217Z,27.52
2018-04-07T15:32:47.600Z,27.19
2018-04-07T15:35:15.990Z,27.71
2018-04-07T15:37:45.147Z,27.23
2018-04-07T15:40:13.531Z,26.34
2018-04-07T15:42:41.900Z,26.50
2018-04-07T15:45:10.270Z,26.99
2018-04-07T15:50:14.015Z,27.52
2018-04-07T15:52:42.448Z,26.94
2018-04-07T15:55:11.608Z,26.68
2018-04-07T15:57:39.992Z,27.47
2018-04-07T16:00:08.358Z,26.70
2018-04-07T16:02:36.795Z,27.30
2018-04-07T16:05:05.208Z,27.55
2018-04-07T16:07:33.676Z,27.56
2018-04-07T16:10:02.100Z,26.90
2018-04-07T16:12:30.482Z,27.21
2018-04-07T16:14:58.920Z,27.06
2018-04-07T16:17:27.417Z,27.34
2018-04-07T16:19:55.812Z,27.22
2018-04-07T16:22:24.245Z,26.29
2018-04-07T16:24:52.628Z,25.68
2018-04-07T16:27:21.962Z,25.61
2018-04-07T16:29:50.363Z,25.62
2018-04-07T16:32:18.764Z,25.52
2018-04-07T16:34:47.175Z,25.21
2018-04-07T16:37:15.831Z,25.24
2018-04-07T16:39:44.235Z,25.20
2018-04-07T16:42:12.633Z,25.28
2018-04-07T16:44:41.819Z,24.91
2018-04-07T16:47:10.214Z,24.97
2018-04-07T16:49:38.605Z,25.14
2018-04-07T16:52:07.770Z,25.46
2018-04-07T16:54:36.267Z,25.15
2018-04-07T16:57:04.701Z,24.81
2018-04-07T16:59:33.088Z,24.76
2018-04-07T17:02:01.476Z,24.80
2018-04-07T17:04:29.862Z,24.35
2018-04-07T17:06:58.274Z,24.63
2018-04-07T17:09:26.703Z,24.25
2018-04-07T17:11:55.131Z,23.93
2018-04-07T17:14:23.541Z,23.81
2018-04-07T17:16:52.707Z,23.71
2018-04-07T17:19:21.101Z,23.60
2018-04-07T17:21:49.642Z,23.40
2018-04-07T17:24:18.095Z,23.53
2018-04-07T17:26:47.244Z,23.40
2018-04-07T17:29:15.639Z,23.14
2018-04-07T17:31:44.017Z,22.80
2018-04-07T17:34:12.446Z,22.81
2018-04-07T17:36:41.603Z,22.76
2018-04-07T17:39:09.984Z,22.67
2018-04-07T17:41:38.375Z,22.61
2018-04-07T17:44:07.585Z,22.33
2018-04-07T17:46:35.964Z,22.17
2018-04-07T17:49:06.239Z,22.13
2018-04-07T17:51:32.871Z,21.97
2018-04-07T17:54:01.258Z,21.79
2018-04-07T17:56:29.776Z,21.73
2018-04-07T17:58:58.158Z,21.57
2018-04-07T18:01:27.608Z,21.52
2018-04-07T18:03:55.999Z,21.45
2018-04-07T18:06:24.403Z,21.16
2018-04-07T18:08:52.862Z,21.16
2018-04-07T18:11:21.259Z,20.84
2018-04-07T18:13:49.705Z,20.78
2018-04-07T18:16:18.104Z,20.64
2018-04-07T18:18:46.559Z,20.54
2018-04-07T18:21:15.012Z,20.41
2018-04-07T18:23:44.205Z,20.29
2018-04-07T18:26:12.656Z,20.16
2018-04-07T18:28:41.076Z,20.12
2018-04-07T18:31:09.543Z,20.04
2018-04-07T18:33:37.919Z,19.97
2018-04-07T18:36:06.342Z,19.97
2018-04-07T18:38:35.518Z,20.09
2018-04-07T18:41:03.958Z,19.83
2018-04-07T18:43:34.251Z,19.71
2018-04-07T18:46:03.411Z,19.69
2018-04-07T18:48:31.954Z,19.51
2018-04-07T18:51:00.334Z,19.15
2018-04-07T18:53:28.753Z,19.08
2018-04-07T18:55:57.197Z,18.89
2018-04-07T18:58:25.590Z,18.94
2018-04-07T19:00:53.979Z,18.66
2018-04-07T19:03:22.495Z,18.34
2018-04-07T19:05:50.892Z,18.19
2018-04-07T19:08:20.062Z,18.32
2018-04-07T19:10:48.446Z,18.50
2018-04-07T19:13:16.841Z,18.71
2018-04-07T19:15:46.008Z,18.58
2018-04-07T19:18:14.422Z,18.55
2018-04-07T19:20:42.807Z,18.64
2018-04-07T19:23:11.216Z,18.53
2018-04-07T19:25:40.382Z,18.42
2018-04-07T19:28:08.784Z,18.10
2018-04-07T19:30:37.185Z,17.95
2018-04-07T19:33:06.337Z,17.77
2018-04-07T19:35:34.736Z,17.74
2018-04-07T19:38:03.893Z,17.57
2018-04-07T19:40:32.289Z,17.41
2018-04-07T19:43:00.679Z,17.23
2018-04-07T19:45:30.343Z,17.02
2018-04-07T19:47:58.734Z,16.85
2018-04-07T19:50:27.142Z,16.68
2018-04-07T19:52:55.546Z,16.52
2018-04-07T19:55:23.924Z,16.49
2018-04-07T19:57:52.932Z,16.53
2018-04-07T20:00:21.560Z,16.57
2018-04-07T20:02:50.036Z,16.34
2018-04-07T20:05:18.434Z,16.20
2018-04-07T20:07:46.837Z,16.10
2018-04-07T20:10:15.259Z,16.20
2018-04-07T20:12:45.034Z,16.30
2018-04-07T20:15:13.493Z,16.65
2018-04-07T20:17:41.890Z,16.73
2018-04-07T20:20:10.334Z,16.61
2018-04-07T20:22:38.725Z,16.73
2018-04-07T20:25:07.176Z,16.75
2018-04-07T20:27:36.333Z,16.93
2018-04-07T20:30:04.835Z,16.96
2018-04-07T20:32:33.248Z,16.98
2018-04-07T20:35:02.386Z,17.08
2018-04-07T20:37:30.788Z,17.03
2018-04-07T20:40:00.018Z,17.27
2018-04-07T20:42:28.427Z,17.28
2018-04-07T20:44:56.817Z,17.28
2018-04-07T20:47:25.262Z,16.95
2018-04-07T20:49:54.465Z,16.88
2018-04-07T20:52:23.674Z,16.71
2018-04-07T20:54:52.981Z,16.45
2018-04-07T20:57:22.189Z,16.17
2018-04-07T20:59:50.580Z,16.29
2018-04-07T21:02:19.029Z,16.32
2018-04-07T21:04:48.334Z,16.49
2018-04-07T21:07:17.543Z,16.39
2018-04-07T21:09:46.734Z,16.28
2018-04-07T21:12:16.053Z,16.27
2018-04-07T21:14:45.431Z,16.18
2018-04-07T21:17:13.867Z,16.28
2018-04-07T21:19:42.275Z,16.23
2018-04-07T21:22:10.725Z,16.18
2018-04-07T21:24:39.126Z,16.21
2018-04-07T21:27:07.556Z,16.28
2018-04-07T21:29:36.715Z,16.27
2018-04-07T21:32:05.143Z,16.34
2018-04-07T21:34:34.308Z,16.25
2018-04-07T21:37:02.786Z,16.20
2018-04-07T21:39:31.190Z,16.08
2018-04-07T21:42:00.346Z,15.95
2018-04-07T21:44:28.752Z,15.75
2018-04-07T21:46:58.044Z,15.57
2018-04-07T21:49:26.440Z,15.41
2018-04-07T21:51:55.639Z,15.42
2018-04-07T21:54:24.039Z,15.42
2018-04-07T21:56:53.217Z,15.35
2018-04-07T21:59:21.631Z,15.19
2018-04-07T22:01:50.818Z,15.21
2018-04-07T22:04:19.972Z,15.11
2018-04-07T22:06:48.375Z,15.03
2018-04-07T22:09:16.782Z,15.08
2018-04-07T22:11:45.196Z,14.97
2018-04-07T22:14:13.645Z,14.99
2018-04-07T22:16:42.842Z,15.02
2018-04-07T22:19:11.219Z,15.16
2018-04-07T22:21:39.688Z,14.84
2018-04-07T22:24:08.103Z,14.75
2018-04-07T22:26:36.522Z,14.82
2018-04-07T22:29:04.944Z,14.73
2018-04-07T22:31:34.839Z,14.49
2018-04-07T22:34:03.330Z,14.44
2018-04-07T22:36:32.196Z,14.39
2018-04-07T22:39:00.579Z,14.79
2018-04-07T22:41:29.022Z,14.89
2018-04-07T22:43:58.257Z,14.89
2018-04-07T22:46:26.639Z,14.93
2018-04-07T22:48:55.104Z,15.08
2018-04-07T22:51:23.608Z,15.18
2018-04-07T22:53:52.083Z,15.29
2018-04-07T22:56:20.484Z,15.38
2018-04-07T22:58:48.870Z,15.36
2018-04-07T23:01:17.280Z,15.39
2018-04-07T23:03:45.824Z,15.33
2018-04-07T23:06:14.245Z,15.34
2018-04-07T23:08:42.690Z,15.28
2018-04-07T23:11:11.100Z,15.37
2018-04-07T23:13:39.486Z,15.36
2018-04-07T23:16:08.619Z,15.19
2018-04-07T23:18:36.997Z,15.04
2018-04-07T23:21:05.380Z,14.84
2018-04-07T23:23:33.774Z,14.94
2018-04-07T23:26:02.235Z,14.92
2018-04-07T23:28:30.656Z,14.92
2018-04-07T23:31:00.014Z,14.94
2018-04-07T23:33:29.170Z,14.89
2018-04-07T23:35:57.550Z,14.84
2018-04-07T23:38:25.927Z,14.83
2018-04-07T23:40:54.323Z,14.77
2018-04-07T23:43:22.742Z,14.62
2018-04-07T23:45:51.915Z,14.39
2018-04-07T23:48:20.330Z,14.27
2018-04-07T23:50:49.062Z,14.21
2018-04-07T23:53:17.487Z,14.25
2018-04-07T23:55:45.899Z,14.41
2018-04-07T23:58:14.285Z,14.40
